Time;durP1;ratioP1;P1;durP2;ratioP2;P2;SDS_P1;SDS_P2;PMS_P1;PMS_P2;Temp;Humidity;BMP_temperature;BMP_pressure;BME280_temperature;BME280_humidity;BME280_pressure;Samples;Min_cycle;Max_cycle;Signal;HPM_P1;HPM_P2
2023/03/20 05:05:30;;;;;;;1.40;1.30;;;9.60;99.90;;;;;;5565323;23;20223;-65
2023/03/20 05:07:56;;;;;;;1.33;1.33;;;9.50;99.90;;;;;;4995315;28;20167;-64
2023/03/20 05:10:21;;;;;;;1.17;1.08;;;9.50;99.90;;;;;;4995323;28;20403;-66
2023/03/20 05:12:47;;;;;;;1.20;1.20;;;9.50;99.90;;;;;;4994823;28;20503;-65
2023/03/20 05:15:13;;;;;;;1.93;1.80;;;9.50;99.90;;;;;;4980478;28;20221;-66
2023/03/20 05:17:39;;;;;;;1.40;1.30;;;9.50;99.90;;;;;;4975183;28;20699;-66
2023/03/20 05:20:05;;;;;;;1.97;1.40;;;9.50;99.90;;;;;;4975419;28;20176;-65
2023/03/20 05:22:31;;;;;;;1.33;1.27;;;9.50;99.90;;;;;;4975643;28;20459;-66
2023/03/20 05:24:56;;;;;;;0.90;0.90;;;9.50;99.90;;;;;;4973690;28;20247;-66
2023/03/20 05:27:22;;;;;;;1.10;1.10;;;9.50;99.90;;;;;;4975589;28;20195;-65
2023/03/20 05:29:47;;;;;;;1.13;1.13;;;9.50;99.90;;;;;;4974644;28;20180;-66
2023/03/20 05:32:13;;;;;;;1.17;1.17;;;9.50;99.90;;;;;;4973841;28;20184;-65
2023/03/20 05:34:39;;;;;;;1.00;1.00;;;9.50;99.90;;;;;;4973178;28;20263;-65
2023/03/20 05:37:04;;;;;;;1.30;1.20;;;9.50;99.90;;;;;;4973900;28;20187;-65
2023/03/20 05:39:30;;;;;;;0.70;0.70;;;9.50;99.90;;;;;;4975280;28;21045;-65
2023/03/20 05:41:56;;;;;;;1.03;1.03;;;9.50;99.90;;;;;;4975013;28;20207;-65
2023/03/20 05:44:21;;;;;;;1.50;1.50;;;9.50;99.90;;;;;;4974479;28;20246;-65
2023/03/20 05:46:47;;;;;;;0.80;0.80;;;9.50;99.90;;;;;;4974999;28;20176;-65
2023/03/20 05:49:12;;;;;;;0.90;0.90;;;9.40;99.90;;;;;;4973840;28;20557;-65
2023/03/20 05:51:38;;;;;;;0.80;0.80;;;9.40;99.90;;;;;;4973641;28;20191;-65
2023/03/20 05:54:04;;;;;;;0.70;0.70;;;9.50;99.90;;;;;;4973681;28;20670;-66
2023/03/20 05:56:29;;;;;;;1.23;1.23;;;9.50;99.90;;;;;;4974396;28;20235;-64
2023/03/20 05:58:55;;;;;;;0.90;0.90;;;9.50;99.90;;;;;;4974309;28;20208;-66
2023/03/20 06:01:21;;;;;;;1.67;1.47;;;9.50;99.90;;;;;;4973434;28;20482;-65
2023/03/20 06:03:47;;;;;;;1.17;1.13;;;9.50;99.90;;;;;;4973391;28;20701;-67
2023/03/20 06:06:14;;;;;;;1.35;1.25;;;9.50;99.90;;;;;;4971857;28;20194;-66
2023/03/20 06:08:40;;;;;;;0.88;0.88;;;9.50;99.90;;;;;;4971784;28;20175;-66
2023/03/20 06:11:07;;;;;;;1.00;1.00;;;9.50;99.90;;;;;;4972691;28;20180;-67
2023/03/20 06:13:32;;;;;;;6.57;1.40;;;9.60;99.90;;;;;;4972436;28;20254;-67
2023/03/20 06:15:58;;;;;;;1.00;1.00;;;9.70;99.90;;;;;;4971473;28;20286;-69
2023/03/20 06:18:24;;;;;;;1.57;1.47;;;9.70;99.90;;;;;;4968704;28;20275;-68
2023/03/20 06:20:53;;;;;;;1.13;1.13;;;9.80;99.90;;;;;;4973876;28;20191;-67
2023/03/20 06:23:19;;;;;;;1.42;1.33;;;9.80;99.90;;;;;;4972804;28;20600;-69
2023/03/20 06:25:45;;;;;;;1.03;1.03;;;9.80;99.90;;;;;;4973760;28;20291;-67
2023/03/20 06:28:10;;;;;;;1.37;1.27;;;9.80;99.90;;;;;;4974503;28;20419;-67
2023/03/20 06:30:36;;;;;;;1.13;1.03;;;9.80;99.90;;;;;;4974397;28;20504;-68
2023/03/20 06:33:04;;;;;;;1.20;1.10;;;9.90;99.90;;;;;;4974071;28;20422;-64
2023/03/20 06:35:30;;;;;;;0.75;0.75;;;9.90;99.90;;;;;;4969140;28;20523;-65
2023/03/20 06:37:57;;;;;;;0.93;0.93;;;10.00;99.90;;;;;;4953047;28;20185;-67
2023/03/20 06:40:22;;;;;;;1.58;1.48;;;10.00;99.90;;;;;;4970462;28;20183;-65
2023/03/20 06:42:48;;;;;;;1.00;1.00;;;10.10;99.90;;;;;;4973799;28;20204;-70
2023/03/20 06:45:14;;;;;;;1.23;1.13;;;10.10;99.90;;;;;;4973722;28;20271;-66
2023/03/20 06:47:40;;;;;;;2.15;0.98;;;10.20;99.90;;;;;;4973965;28;20531;-64
2023/03/20 06:50:07;;;;;;;1.73;1.00;;;10.30;99.90;;;;;;4974109;28;20184;-64
2023/03/20 06:52:32;;;;;;;1.65;1.30;;;10.30;99.90;;;;;;4974217;28;20408;-64
2023/03/20 06:54:58;;;;;;;1.00;1.00;;;10.30;99.90;;;;;;4973864;28;20191;-65
2023/03/20 06:57:23;;;;;;;1.13;1.13;;;10.30;99.90;;;;;;4974092;28;20169;-64
2023/03/20 06:59:49;;;;;;;1.30;1.20;;;10.30;99.90;;;;;;4973908;28;20658;-64
2023/03/20 07:02:15;;;;;;;0.97;0.90;;;10.40;99.90;;;;;;4965762;28;20192;-66
2023/03/20 07:04:41;;;;;;;1.40;1.02;;;10.50;99.90;;;;;;4972087;28;20242;-67
2023/03/20 07:07:07;;;;;;;0.90;0.90;;;10.60;99.90;;;;;;4970207;28;20192;-68
2023/03/20 07:09:33;;;;;;;1.00;1.00;;;10.70;99.90;;;;;;4972048;28;20646;-68
2023/03/20 07:11:58;;;;;;;1.10;1.10;;;10.80;99.90;;;;;;4972166;28;20821;-68
2023/03/20 07:14:24;;;;;;;0.80;0.80;;;10.90;99.90;;;;;;4971839;28;20188;-68
2023/03/20 07:16:50;;;;;;;1.20;1.10;;;11.00;99.90;;;;;;4971222;28;20428;-65
2023/03/20 07:19:17;;;;;;;3.07;1.60;;;11.10;99.90;;;;;;4971738;28;20180;-66
2023/03/20 07:21:43;;;;;;;1.10;1.10;;;11.20;99.90;;;;;;4972333;28;20197;-65
2023/03/20 07:24:09;;;;;;;0.90;0.90;;;11.30;99.90;;;;;;4973525;28;20787;-65
2023/03/20 07:26:34;;;;;;;1.77;1.53;;;11.40;99.90;;;;;;4973337;28;20426;-65
2023/03/20 07:29:00;;;;;;;1.40;1.30;;;11.40;99.90;;;;;;4972379;28;20174;-65
2023/03/20 07:31:31;;;;;;;6.07;5.17;;;11.40;99.90;;;;;;4971414;28;20545;-68
2023/03/20 07:33:56;;;;;;;3.53;3.20;;;11.40;99.90;;;;;;4972845;28;20434;-67
2023/03/20 07:36:22;;;;;;;1.00;1.00;;;11.40;99.90;;;;;;4973671;28;20449;-65
2023/03/20 07:38:48;;;;;;;1.50;1.40;;;11.40;99.90;;;;;;4975453;28;20421;-65
2023/03/20 07:41:13;;;;;;;1.30;1.20;;;11.40;99.90;;;;;;4975599;28;20646;-66
2023/03/20 07:43:39;;;;;;;2.33;1.10;;;11.40;99.90;;;;;;4976627;28;20232;-67
2023/03/20 07:46:06;;;;;;;1.03;0.93;;;11.50;99.90;;;;;;4976965;28;20171;-67
2023/03/20 07:48:33;;;;;;;0.90;0.90;;;11.50;99.90;;;;;;4958696;28;20262;-66
2023/03/20 07:50:59;;;;;;;1.90;1.80;;;11.60;99.90;;;;;;4974801;28;20426;-66
2023/03/20 07:53:24;;;;;;;0.87;0.87;;;11.70;99.90;;;;;;4976006;28;20520;-65
2023/03/20 07:55:50;;;;;;;1.17;1.07;;;11.90;99.90;;;;;;4975638;28;20207;-65
2023/03/20 07:58:16;;;;;;;1.87;1.60;;;12.00;99.90;;;;;;4976731;28;20182;-65
2023/03/20 08:00:42;;;;;;;1.27;1.17;;;12.10;99.90;;;;;;4976572;28;20780;-65
2023/03/20 08:03:08;;;;;;;1.60;1.27;;;12.20;99.90;;;;;;4975422;28;20468;-65
2023/03/20 08:05:34;;;;;;;1.40;1.30;;;12.10;99.90;;;;;;4975633;28;20471;-65
2023/03/20 08:08:00;;;;;;;4.65;3.85;;;12.20;99.90;;;;;;4975275;28;20433;-67
2023/03/20 08:10:26;;;;;;;1.77;1.67;;;12.30;99.90;;;;;;4976749;28;20261;-65
2023/03/20 08:12:51;;;;;;;1.43;1.10;;;12.50;99.90;;;;;;4976347;28;20414;-65
2023/03/20 08:15:17;;;;;;;1.30;1.20;;;12.70;99.90;;;;;;4975084;28;20195;-66
2023/03/20 08:17:46;;;;;;;1.17;1.10;;;13.00;99.90;;;;;;4976348;28;20701;-63
2023/03/20 08:20:14;;;;;;;3.30;1.90;;;13.30;99.90;;;;;;4965115;28;20191;-64
2023/03/20 08:22:40;;;;;;;2.40;1.80;;;13.50;99.90;;;;;;4975845;28;20455;-64
2023/03/20 08:25:07;;;;;;;2.13;1.97;;;13.90;99.90;;;;;;4974703;28;20518;-66
2023/03/20 08:27:33;;;;;;;1.53;1.43;;;14.10;99.90;;;;;;4970600;28;20429;-64
2023/03/20 08:29:59;;;;;;;3.23;1.60;;;14.30;99.90;;;;;;4970676;28;20434;-65
2023/03/20 08:32:25;;;;;;;1.30;1.20;;;14.30;99.90;;;;;;4976488;28;20914;-61
2023/03/20 08:34:53;;;;;;;1.67;1.57;;;14.30;99.90;;;;;;4974245;28;20554;-63
2023/03/20 08:37:19;;;;;;;1.37;1.27;;;14.40;99.90;;;;;;4975381;28;20423;-64
2023/03/20 08:39:45;;;;;;;1.40;0.93;;;14.40;99.90;;;;;;4976253;28;20431;-65
2023/03/20 08:42:11;;;;;;;1.37;1.27;;;14.50;99.90;;;;;;4976198;28;20486;-64
2023/03/20 08:44:36;;;;;;;1.63;1.53;;;14.50;99.90;;;;;;4975676;28;20206;-65
2023/03/20 08:47:04;;;;;;;1.50;1.40;;;14.60;99.90;;;;;;4970180;28;20177;-64
2023/03/20 08:49:30;;;;;;;2.30;2.13;;;14.60;99.90;;;;;;4974465;28;20634;-65
2023/03/20 08:51:55;;;;;;;1.70;1.40;;;14.80;99.90;;;;;;4975618;28;20477;-64
2023/03/20 08:54:21;;;;;;;0.80;0.80;;;15.00;99.90;;;;;;4975618;28;20200;-63
2023/03/20 08:56:46;;;;;;;1.07;1.00;;;15.20;99.90;;;;;;4975639;28;20586;-65
2023/03/20 08:59:12;;;;;;;0.90;0.90;;;15.40;99.90;;;;;;4975779;28;20183;-63
2023/03/20 09:01:38;;;;;;;1.13;1.07;;;15.60;99.90;;;;;;4975580;28;20239;-64
2023/03/20 09:04:04;;;;;;;1.47;0.80;;;15.90;99.90;;;;;;4975236;28;20275;-64
2023/03/20 09:06:31;;;;;;;0.93;0.93;;;16.30;99.90;;;;;;4973677;28;20773;-66
2023/03/20 09:08:57;;;;;;;0.90;0.90;;;16.90;99.90;;;;;;4975623;28;20408;-64
2023/03/20 09:11:23;;;;;;;1.27;1.00;;;17.30;99.90;;;;;;4975319;28;20428;-64
2023/03/20 09:13:49;;;;;;;1.63;1.50;;;17.20;99.90;;;;;;4973871;28;20185;-63
2023/03/20 09:16:15;;;;;;;1.03;1.00;;;17.40;99.90;;;;;;4964479;28;20424;-61
2023/03/20 09:18:40;;;;;;;0.90;0.90;;;17.30;99.90;;;;;;4972515;28;20658;-61
2023/03/20 09:21:06;;;;;;;1.33;1.03;;;17.40;99.90;;;;;;4974730;28;20424;-61
2023/03/20 09:23:32;;;;;;;3.90;1.23;;;17.20;99.90;;;;;;4974887;28;20200;-62
2023/03/20 09:25:59;;;;;;;1.20;1.10;;;17.00;99.90;;;;;;4975333;28;20424;-62
2023/03/20 09:28:25;;;;;;;1.00;1.00;;;17.00;99.90;;;;;;4971703;28;20627;-63
2023/03/20 09:30:58;;;;;;;0.70;0.70;;;16.80;99.90;;;;;;4955900;28;20810;-63
2023/03/20 09:33:24;;;;;;;1.23;1.17;;;16.70;99.90;;;;;;4968395;28;20431;-62
2023/03/20 09:35:50;;;;;;;1.00;1.00;;;16.70;99.90;;;;;;4959571;28;20448;-62
2023/03/20 09:38:16;;;;;;;0.70;0.70;;;16.70;99.90;;;;;;4955810;28;20405;-62
2023/03/20 09:40:51;;;;;;;1.63;1.40;;;16.40;99.90;;;;;;4966628;28;20504;-62
2023/03/20 09:43:48;;;;;;;1.10;1.00;;;16.30;99.90;;;;;;4974714;28;20208;-61
2023/03/20 09:46:22;;;;;;;1.13;1.03;;;16.10;99.90;;;;;;4975036;28;20932;-66
2023/03/20 09:49:08;;;;;;;1.70;1.07;;;16.10;99.90;;;;;;4974532;28;20411;-61
2023/03/20 09:51:51;;;;;;;4.27;1.50;;;16.10;99.90;;;;;;4975034;28;20543;-64
2023/03/20 09:54:35;;;;;;;1.20;1.10;;;16.10;99.90;;;;;;4974329;28;20469;-61
2023/03/20 09:57:01;;;;;;;0.90;0.90;;;16.10;99.90;;;;;;4973619;28;20411;-62
2023/03/20 09:59:33;;;;;;;1.07;1.07;;;16.10;99.90;;;;;;4974583;28;20741;-63
2023/03/20 10:02:25;;;;;;;1.00;1.00;;;15.80;99.90;;;;;;4969032;28;20499;-63
2023/03/20 10:04:53;;;;;;;1.07;1.03;;;15.60;99.90;;;;;;4948963;29;20488;-63
2023/03/20 10:07:19;;;;;;;1.10;1.10;;;15.60;99.90;;;;;;4956532;28;20881;-65
2023/03/20 10:09:45;;;;;;;1.50;1.40;;;15.50;99.90;;;;;;4972363;28;20413;-64
2023/03/20 10:12:29;;;;;;;1.30;1.10;;;15.50;99.90;;;;;;4974405;28;20422;-64
2023/03/20 10:15:09;;;;;;;1.00;1.00;;;15.50;99.90;;;;;;4974130;28;20460;-61
2023/03/20 10:17:46;;;;;;;1.10;1.10;;;15.50;99.90;;;;;;4973251;28;20485;-61
2023/03/20 10:20:15;;;;;;;1.33;1.23;;;15.40;99.90;;;;;;4974189;28;20431;-61
2023/03/20 10:23:05;;;;;;;1.70;1.60;;;15.40;99.90;;;;;;4974230;28;20423;-60
2023/03/20 10:25:36;;;;;;;1.43;1.40;;;15.40;99.90;;;;;;4974014;28;20430;-61
2023/03/20 10:28:15;;;;;;;1.40;1.30;;;15.20;99.90;;;;;;4974703;28;20865;-62
2023/03/20 10:31:13;;;;;;;1.00;1.00;;;15.30;99.90;;;;;;4974396;28;20408;-62
2023/03/20 10:34:06;;;;;;;1.57;1.20;;;15.10;99.90;;;;;;4952792;28;20961;-62
2023/03/20 10:36:55;;;;;;;1.47;1.37;;;14.90;99.90;;;;;;4953953;28;20469;-63
2023/03/20 10:39:33;;;;;;;2.03;1.80;;;14.50;99.90;;;;;;4970892;28;20455;-62
2023/03/20 10:42:03;;;;;;;1.50;1.30;;;14.30;99.90;;;;;;4974074;28;20454;-63
2023/03/20 10:44:39;;;;;;;1.20;1.20;;;14.10;99.90;;;;;;4973779;28;20562;-62
2023/03/20 10:47:12;;;;;;;1.60;1.50;;;13.80;99.90;;;;;;4973978;28;20779;-61
2023/03/20 10:49:53;;;;;;;3.27;2.00;;;13.70;99.90;;;;;;4973763;28;20406;-64
2023/03/20 10:52:28;;;;;;;2.30;2.20;;;13.50;99.90;;;;;;4974213;28;20408;-64
2023/03/20 10:55:02;;;;;;;1.63;1.53;;;13.20;99.90;;;;;;4973538;28;20423;-61
2023/03/20 10:57:32;;;;;;;1.67;1.50;;;13.20;99.90;;;;;;4973398;28;20405;-61
2023/03/20 10:59:58;;;;;;;1.80;1.70;;;13.20;99.90;;;;;;4973484;28;20435;-62
2023/03/20 11:02:29;;;;;;;1.93;1.43;;;13.20;99.90;;;;;;4973695;28;20542;-63
2023/03/20 11:04:55;;;;;;;2.03;1.83;;;13.20;99.90;;;;;;4973600;28;20486;-62
2023/03/20 11:07:32;;;;;;;1.90;1.53;;;13.10;99.90;;;;;;4974031;28;20427;-60
2023/03/20 11:10:04;;;;;;;4.53;1.37;;;13.10;99.90;;;;;;4973493;28;20439;-64
2023/03/20 11:12:40;;;;;;;3.00;1.80;;;13.10;99.90;;;;;;4976016;28;20773;-63
2023/03/20 11:15:28;;;;;;;1.70;1.60;;;13.00;99.90;;;;;;4976736;28;20516;-63
2023/03/20 11:17:56;;;;;;;1.97;1.87;;;13.00;99.90;;;;;;4976958;28;20449;-64
2023/03/20 11:20:23;;;;;;;2.03;1.93;;;13.00;99.90;;;;;;4958223;29;20463;-63
2023/03/20 11:22:50;;;;;;;2.20;2.00;;;13.10;99.90;;;;;;4957999;28;20463;-62
2023/03/20 11:25:31;;;;;;;4.20;2.70;;;13.10;99.90;;;;;;4958300;28;20822;-62
2023/03/20 11:28:17;;;;;;;2.13;1.93;;;13.10;99.90;;;;;;4958356;28;20506;-61
2023/03/20 11:30:42;;;;;;;2.87;2.60;;;13.10;99.90;;;;;;4968162;28;20438;-64
2023/03/20 11:33:09;;;;;;;2.83;2.63;;;13.10;99.90;;;;;;4976981;28;20513;-62
2023/03/20 11:35:34;;;;;;;4.63;2.70;;;13.10;99.90;;;;;;4977402;28;20249;-64
2023/03/20 11:38:15;;;;;;;2.97;2.50;;;13.10;99.90;;;;;;4977053;28;20418;-62
2023/03/20 11:40:40;;;;;;;3.80;3.13;;;13.20;99.90;;;;;;4963965;28;20650;-64
2023/03/20 11:43:13;;;;;;;2.57;2.37;;;13.20;99.90;;;;;;4976580;28;20477;-63
2023/03/20 11:45:44;;;;;;;2.70;2.50;;;13.30;99.90;;;;;;4972589;28;20256;-63
2023/03/20 11:48:21;;;;;;;3.13;2.60;;;13.50;99.90;;;;;;4958050;28;20523;-62
2023/03/20 11:51:04;;;;;;;2.70;2.47;;;13.60;99.90;;;;;;4976703;28;20762;-62
2023/03/20 11:53:31;;;;;;;2.93;2.50;;;13.70;99.90;;;;;;4975264;28;21005;-63
2023/03/20 11:56:02;;;;;;;2.83;2.63;;;13.90;99.90;;;;;;4976936;28;20779;-63
2023/03/20 11:58:28;;;;;;;5.90;2.90;;;14.10;99.90;;;;;;4977033;28;20423;-63
2023/03/20 12:00:55;;;;;;;3.90;3.07;;;14.30;99.90;;;;;;4976955;28;20766;-63
2023/03/20 12:03:40;;;;;;;3.90;3.50;;;14.40;99.90;;;;;;4976315;28;20798;-66
2023/03/20 12:06:12;;;;;;;3.13;2.63;;;14.70;99.90;;;;;;4976893;28;20974;-67
2023/03/20 12:08:39;;;;;;;3.67;3.37;;;14.90;99.90;;;;;;4976875;28;20421;-63
2023/03/20 12:11:18;;;;;;;4.00;3.00;;;15.10;99.90;;;;;;4977044;28;20409;-64
2023/03/20 12:13:47;;;;;;;2.87;2.57;;;15.40;99.90;;;;;;4974555;28;20794;-63
2023/03/20 12:16:18;;;;;;;3.30;3.00;;;15.50;99.90;;;;;;4976043;28;20420;-61
2023/03/20 12:19:01;;;;;;;4.83;3.20;;;15.60;99.90;;;;;;4976898;28;20447;-64
2023/03/20 12:21:45;;;;;;;3.73;2.80;;;15.80;99.90;;;;;;4976033;28;20438;-64
2023/03/20 12:24:36;;;;;;;2.90;2.70;;;16.10;99.90;;;;;;4974788;28;20435;-63
2023/03/20 12:27:20;;;;;;;2.80;2.60;;;16.30;99.90;;;;;;4975375;28;20418;-64
2023/03/20 12:29:50;;;;;;;4.90;2.40;;;16.50;99.90;;;;;;4976356;28;20399;-64
2023/03/20 12:32:32;;;;;;;2.90;2.60;;;16.60;99.90;;;;;;4976761;28;20462;-63
2023/03/20 12:35:29;;;;;;;5.73;4.40;;;16.60;99.90;;;;;;4975793;28;20506;-63
2023/03/20 12:37:55;;;;;;;3.90;2.90;;;16.60;99.90;;;;;;4974056;28;20565;-63
2023/03/20 12:40:31;;;;;;;3.13;2.83;;;16.70;99.90;;;;;;4976225;28;20463;-64
2023/03/20 12:43:10;;;;;;;3.50;2.90;;;16.70;99.90;;;;;;4976086;28;20562;-63
2023/03/20 12:45:46;;;;;;;3.73;2.73;;;16.80;99.90;;;;;;4975974;28;20447;-64
2023/03/20 12:48:36;;;;;;;3.57;3.23;;;16.90;99.90;;;;;;4976332;28;20924;-63
2023/03/20 12:51:10;;;;;;;3.40;2.93;;;16.90;99.90;;;;;;4975767;28;20447;-64
2023/03/20 12:54:00;;;;;;;3.23;2.87;;;17.00;99.90;;;;;;4975610;28;20901;-63
2023/03/20 12:56:52;;;;;;;4.17;3.20;;;17.20;99.90;;;;;;4976026;28;20412;-64
2023/03/20 12:59:39;;;;;;;3.83;2.40;;;17.30;99.80;;;;;;4967519;28;20420;-64
2023/03/20 13:02:19;;;;;;;2.57;2.33;;;17.10;99.50;;;;;;4975982;28;20530;-65
2023/03/20 13:05:03;;;;;;;3.13;2.80;;;17.00;99.90;;;;;;4975053;28;20448;-65
2023/03/20 13:08:02;;;;;;;2.80;2.47;;;17.10;99.90;;;;;;4975134;28;20933;-65
2023/03/20 13:10:49;;;;;;;3.63;3.33;;;17.10;99.90;;;;;;4967043;28;20420;-65
2023/03/20 13:13:49;;;;;;;2.80;2.47;;;17.30;99.90;;;;;;4975496;28;20839;-66
2023/03/20 13:16:33;;;;;;;1.80;1.70;;;17.50;99.90;;;;;;4956793;28;20417;-63
2023/03/20 13:19:13;;;;;;;4.37;2.90;;;17.60;99.90;;;;;;4956306;28;20417;-66
2023/03/20 13:21:59;;;;;;;2.93;2.63;;;17.60;99.90;;;;;;4973792;28;20485;-64
2023/03/20 13:24:48;;;;;;;4.90;3.10;;;17.80;99.90;;;;;;4975112;28;20485;-65
2023/03/20 13:27:26;;;;;;;3.87;2.73;;;17.90;99.90;;;;;;4975532;28;20408;-64
2023/03/20 13:30:20;;;;;;;2.30;2.10;;;17.80;99.10;;;;;;4975273;28;20411;-63
2023/03/20 13:33:23;;;;;;;3.23;2.87;;;17.50;98.80;;;;;;4975457;28;20402;-64
2023/03/20 13:36:01;;;;;;;3.83;2.13;;;17.30;99.30;;;;;;4974039;28;20481;-64
2023/03/20 13:38:34;;;;;;;2.70;2.47;;;17.10;98.90;;;;;;4975125;28;20394;-63
2023/03/20 13:41:03;;;;;;;3.37;2.90;;;17.00;99.50;;;;;;4974998;28;20455;-65
2023/03/20 13:43:38;;;;;;;2.87;2.63;;;17.00;99.40;;;;;;4974676;28;20463;-64
2023/03/20 13:46:07;;;;;;;2.10;1.90;;;16.90;98.90;;;;;;4975504;28;20429;-64
2023/03/20 13:48:39;;;;;;;3.30;3.00;;;16.80;99.90;;;;;;4974975;28;20418;-64
2023/03/20 13:51:13;;;;;;;6.73;2.70;;;16.80;99.90;;;;;;4974498;28;20428;-64
2023/03/20 13:54:03;;;;;;;2.87;2.67;;;16.90;99.90;;;;;;4973254;28;20946;-64
2023/03/20 13:56:46;;;;;;;4.57;3.10;;;17.00;99.90;;;;;;4974764;28;20424;-62
2023/03/20 13:59:30;;;;;;;9.10;2.90;;;17.00;98.70;;;;;;4973342;28;20459;-63
2023/03/20 14:02:23;;;;;;;2.33;2.13;;;16.70;99.00;;;;;;4974528;28;20497;-64
2023/03/20 14:05:00;;;;;;;3.37;2.47;;;16.30;99.50;;;;;;4969613;28;20487;-63
2023/03/20 14:07:35;;;;;;;2.40;2.20;;;16.10;99.50;;;;;;4974611;28;20938;-63
2023/03/20 14:10:19;;;;;;;2.63;2.30;;;15.70;99.90;;;;;;4974668;28;20781;-65
2023/03/20 14:12:48;;;;;;;3.27;2.40;;;15.60;99.90;;;;;;4974956;28;20409;-66
2023/03/20 14:15:14;;;;;;;2.43;2.23;;;15.50;99.90;;;;;;4974551;28;20420;-64
2023/03/20 14:17:45;;;;;;;2.47;2.27;;;15.40;99.90;;;;;;4974310;28;20692;-64
2023/03/20 14:20:29;;;;;;;3.40;2.97;;;15.40;99.90;;;;;;4974261;28;20212;-66
2023/03/20 14:22:56;;;;;;;2.20;2.07;;;15.40;99.90;;;;;;4974205;28;20783;-64
2023/03/20 14:25:23;;;;;;;3.17;2.67;;;15.40;99.90;;;;;;4974278;28;20829;-64
2023/03/20 14:27:58;;;;;;;2.93;2.43;;;15.20;99.90;;;;;;4974135;28;20407;-63
2023/03/20 14:30:45;;;;;;;2.20;2.00;;;15.10;99.90;;;;;;4974121;28;20426;-66
2023/03/20 14:33:16;;;;;;;2.50;2.30;;;15.00;99.90;;;;;;4973726;28;20428;-65
2023/03/20 14:35:43;;;;;;;2.50;2.20;;;15.00;99.90;;;;;;4974140;28;20431;-66
2023/03/20 14:38:20;;;;;;;2.50;1.80;;;15.00;99.90;;;;;;4971477;28;20428;-65
2023/03/20 14:41:10;;;;;;;3.63;2.37;;;14.90;99.90;;;;;;4974139;28;20403;-66
2023/03/20 14:44:24;;;;;;;2.50;2.30;;;14.80;99.90;;;;;;4974140;28;20491;-70
2023/03/20 14:47:01;;;;;;;2.57;2.37;;;14.70;99.90;;;;;;4974971;28;20454;-65
2023/03/20 14:49:47;;;;;;;3.37;1.93;;;14.70;99.90;;;;;;4968709;28;20435;-65
2023/03/20 14:52:20;;;;;;;3.00;2.00;;;14.70;99.90;;;;;;4978039;28;20415;-64
2023/03/20 14:54:53;;;;;;;2.13;2.03;;;14.70;99.90;;;;;;4977087;28;20431;-64
2023/03/20 14:57:36;;;;;;;3.27;2.50;;;14.80;99.90;;;;;;4977601;28;20909;-65
2023/03/20 15:00:02;;;;;;;2.60;2.40;;;14.70;99.90;;;;;;4977304;28;20438;-64
2023/03/20 15:02:35;;;;;;;2.73;2.30;;;14.70;99.90;;;;;;4977700;28;20459;-64
2023/03/20 15:05:01;;;;;;;3.03;1.90;;;14.80;99.90;;;;;;4977266;28;20972;-64
2023/03/20 15:07:30;;;;;;;2.37;2.17;;;14.90;99.90;;;;;;4977909;28;20447;-64
2023/03/20 15:09:58;;;;;;;2.47;2.27;;;14.90;99.90;;;;;;4977545;28;20508;-64
2023/03/20 15:12:27;;;;;;;2.50;2.30;;;14.80;99.90;;;;;;4977325;28;20412;-64
2023/03/20 15:14:54;;;;;;;3.67;2.63;;;14.70;99.90;;;;;;4977034;28;20443;-65
2023/03/20 15:17:26;;;;;;;2.57;2.37;;;14.60;99.90;;;;;;4977577;28;20423;-65
2023/03/20 15:20:20;;;;;;;3.30;2.97;;;14.60;99.90;;;;;;4977563;28;20514;-64
2023/03/20 15:22:55;;;;;;;5.57;4.20;;;14.60;99.90;;;;;;4977150;28;20461;-67
2023/03/20 15:25:24;;;;;;;2.60;2.40;;;14.60;99.90;;;;;;4977246;28;20449;-66
2023/03/20 15:27:50;;;;;;;3.07;2.53;;;14.70;99.90;;;;;;4976993;28;20427;-65
2023/03/20 15:30:19;;;;;;;2.77;2.37;;;14.70;99.90;;;;;;4977852;28;20455;-66
2023/03/20 15:32:47;;;;;;;1.93;1.80;;;14.60;99.90;;;;;;4977671;28;20515;-65
2023/03/20 15:35:19;;;;;;;3.77;3.37;;;14.60;99.90;;;;;;4977185;28;20431;-66
2023/03/20 15:37:47;;;;;;;2.23;1.93;;;14.60;99.90;;;;;;4977176;28;21065;-66
2023/03/20 15:40:22;;;;;;;2.73;2.43;;;14.70;99.90;;;;;;4977318;28;20466;-66
2023/03/20 15:42:59;;;;;;;2.70;2.50;;;14.70;99.90;;;;;;4977192;28;20451;-64
2023/03/20 15:45:31;;;;;;;2.00;1.80;;;14.70;99.90;;;;;;4976861;28;20438;-66
2023/03/20 15:48:20;;;;;;;4.10;2.97;;;14.70;99.90;;;;;;4976865;28;20419;-66
2023/03/20 15:50:51;;;;;;;2.60;2.30;;;14.70;99.90;;;;;;4977300;28;20433;-64
2023/03/20 15:53:29;;;;;;;1.93;1.70;;;14.70;99.90;;;;;;4976227;28;20905;-65
2023/03/20 15:56:07;;;;;;;1.77;1.67;;;14.70;99.90;;;;;;4975665;28;20890;-64
2023/03/20 15:58:33;;;;;;;2.27;2.07;;;14.70;99.90;;;;;;4975545;28;20440;-64
2023/03/20 16:01:01;;;;;;;1.90;1.80;;;14.70;99.90;;;;;;4976326;28;20419;-64
2023/03/20 16:03:27;;;;;;;1.83;1.73;;;14.70;99.90;;;;;;4976132;28;20467;-63
2023/03/20 16:05:57;;;;;;;1.93;1.83;;;14.60;99.90;;;;;;4961394;28;20462;-64
2023/03/20 16:08:29;;;;;;;3.87;2.00;;;14.60;99.90;;;;;;4976283;28;20785;-65
2023/03/20 16:11:14;;;;;;;3.93;3.00;;;14.50;99.90;;;;;;4976367;28;20430;-65
2023/03/20 16:13:45;;;;;;;2.53;2.33;;;14.30;99.90;;;;;;4976115;28;20435;-65
2023/03/20 16:16:17;;;;;;;2.70;2.50;;;14.20;99.90;;;;;;4976526;28;20447;-64
2023/03/20 16:18:48;;;;;;;2.40;2.07;;;14.10;99.90;;;;;;4962422;28;20440;-65
2023/03/20 16:21:28;;;;;;;2.47;2.27;;;14.00;99.90;;;;;;4976408;28;20419;-64
2023/03/20 16:23:56;;;;;;;2.50;2.40;;;13.90;99.90;;;;;;4975506;28;20972;-63
2023/03/20 16:26:24;;;;;;;2.57;2.37;;;13.90;99.90;;;;;;4975899;28;20390;-64
2023/03/20 16:29:01;;;;;;;2.03;1.93;;;13.90;99.90;;;;;;4975964;28;20419;-63
2023/03/20 16:31:33;;;;;;;3.10;2.80;;;13.90;99.90;;;;;;4976313;28;20416;-64
2023/03/20 16:34:05;;;;;;;2.30;1.80;;;13.90;99.90;;;;;;4975941;28;20793;-66
2023/03/20 16:36:34;;;;;;;2.50;2.30;;;13.90;99.90;;;;;;4975984;28;20433;-64
2023/03/20 16:39:09;;;;;;;2.20;2.00;;;13.90;99.90;;;;;;4976347;28;20506;-66
2023/03/20 16:41:37;;;;;;;1.63;1.53;;;13.90;99.90;;;;;;4975993;28;20418;-62
2023/03/20 16:44:12;;;;;;;1.97;1.87;;;13.90;99.90;;;;;;4975594;28;20486;-62
2023/03/20 16:47:13;;;;;;;2.70;2.50;;;13.90;99.90;;;;;;4975799;28;20478;-64
2023/03/20 16:49:54;;;;;;;2.77;2.50;;;13.90;99.90;;;;;;4975971;28;20427;-64
2023/03/20 16:52:34;;;;;;;3.00;2.73;;;13.80;99.90;;;;;;4956630;28;20426;-66
2023/03/20 16:55:00;;;;;;;1.97;1.77;;;13.80;99.90;;;;;;4955869;28;20436;-65
2023/03/20 16:57:31;;;;;;;4.10;2.90;;;13.70;99.90;;;;;;4963666;28;20834;-65
2023/03/20 17:00:03;;;;;;;2.80;2.10;;;13.60;99.90;;;;;;4975490;28;20415;-63
2023/03/20 17:02:35;;;;;;;1.87;1.73;;;13.50;99.90;;;;;;4975495;28;21022;-65
2023/03/20 17:05:04;;;;;;;2.47;2.27;;;13.40;99.90;;;;;;4974938;28;20848;-63
2023/03/20 17:07:30;;;;;;;2.60;2.20;;;13.30;99.90;;;;;;4975374;28;20473;-64
2023/03/20 17:10:15;;;;;;;2.50;2.27;;;13.20;99.90;;;;;;4974012;28;20408;-64
2023/03/20 17:12:42;;;;;;;2.93;2.00;;;13.20;99.90;;;;;;4974164;28;20826;-63
2023/03/20 17:15:13;;;;;;;1.90;1.80;;;13.00;99.90;;;;;;4974663;28;20490;-65
2023/03/20 17:17:40;;;;;;;3.63;2.63;;;12.90;99.90;;;;;;4974698;28;20446;-64
2023/03/20 17:20:08;;;;;;;5.00;2.73;;;12.90;99.90;;;;;;4975341;28;20417;-63
2023/03/20 17:22:35;;;;;;;2.30;2.10;;;12.80;99.90;;;;;;4975151;28;20521;-64
2023/03/20 17:25:00;;;;;;;4.00;3.20;;;12.70;99.90;;;;;;4974360;28;20545;-64
2023/03/20 17:27:28;;;;;;;2.80;2.60;;;12.70;99.90;;;;;;4975020;28;20509;-65
2023/03/20 17:29:55;;;;;;;2.73;2.27;;;12.60;99.90;;;;;;4975216;28;20283;-65
2023/03/20 17:32:25;;;;;;;3.23;2.20;;;12.60;99.90;;;;;;4975393;28;20433;-65
2023/03/20 17:34:51;;;;;;;1.60;1.50;;;12.50;99.90;;;;;;4974536;28;20473;-64
2023/03/20 17:37:23;;;;;;;3.17;2.40;;;12.50;99.90;;;;;;4974142;28;20431;-63
2023/03/20 17:39:49;;;;;;;2.10;1.90;;;12.40;99.90;;;;;;4974620;28;20457;-63
2023/03/20 17:42:25;;;;;;;2.07;1.87;;;12.30;99.90;;;;;;4974117;28;20995;-65
2023/03/20 17:44:51;;;;;;;2.70;2.50;;;12.30;99.90;;;;;;4974079;28;20434;-65
2023/03/20 17:47:19;;;;;;;1.70;1.60;;;12.20;99.90;;;;;;4956142;28;20450;-65
2023/03/20 17:49:45;;;;;;;2.37;2.17;;;12.10;99.90;;;;;;4955333;28;20839;-63
2023/03/20 17:52:15;;;;;;;4.13;1.83;;;12.10;99.90;;;;;;4955822;28;20447;-65
2023/03/20 17:54:44;;;;;;;2.17;1.97;;;12.00;99.90;;;;;;4964942;28;20422;-65
2023/03/20 17:57:31;;;;;;;2.40;2.23;;;11.80;99.90;;;;;;4974858;28;20409;-64
2023/03/20 17:59:57;;;;;;;2.38;2.17;;;11.80;99.90;;;;;;4974295;28;20457;-64
2023/03/20 18:02:23;;;;;;;3.13;2.30;;;11.60;99.90;;;;;;4973300;28;20203;-63
2023/03/20 18:04:48;;;;;;;2.83;2.57;;;11.60;99.90;;;;;;4974054;28;20526;-67
2023/03/20 18:07:15;;;;;;;2.20;2.10;;;11.60;99.90;;;;;;4974803;28;20197;-66
2023/03/20 18:09:42;;;;;;;2.50;2.30;;;11.50;99.90;;;;;;4975354;28;20187;-63
2023/03/20 18:12:14;;;;;;;3.00;2.70;;;11.50;99.90;;;;;;4975039;28;20176;-63
2023/03/20 18:14:40;;;;;;;2.80;2.60;;;11.50;99.90;;;;;;4974032;28;20293;-62
2023/03/20 18:17:05;;;;;;;5.30;4.03;;;11.50;99.90;;;;;;4974690;28;20216;-67